createdAt,value
2018-12-14T00:00:59.485Z,5.47
2018-12-14T00:03:38.306Z,5.12
2018-12-14T00:06:15.502Z,5.08
2018-12-14T00:08:50.711Z,6.50
2018-12-14T00:11:28.708Z,6.80
2018-12-14T00:14:08.627Z,7.30
2018-12-14T00:19:51.364Z,5.87
2018-12-14T00:22:32.291Z,5.90
2018-12-14T00:25:14.484Z,5.90
2018-12-14T00:27:58.762Z,6.45
2018-12-14T00:30:45.441Z,6.92
2018-12-14T00:33:28.102Z,7.03
2018-12-14T00:36:07.435Z,10.95
2018-12-14T00:38:46.720Z,8.40
2018-12-14T00:41:25.611Z,8.55
2018-12-14T00:44:10.918Z,8.93
2018-12-14T00:46:47.621Z,8.03
2018-12-14T00:49:26.578Z,26.62
2018-12-14T00:55:13.419Z,7.97
2018-12-14T00:57:54.080Z,6.40
2018-12-14T01:00:32.608Z,8.20
2018-12-14T01:03:11.389Z,9.03
2018-12-14T01:05:52.631Z,7.00
2018-12-14T01:08:33.266Z,9.58
2018-12-14T01:17:14.055Z,9.80
2018-12-14T01:19:55.085Z,7.60
2018-12-14T01:22:31.736Z,9.33
2018-12-14T01:25:10.208Z,10.35
2018-12-14T01:27:49.132Z,8.48
2018-12-14T01:30:27.890Z,7.78
2018-12-14T01:33:02.587Z,7.00
2018-12-14T01:35:40.618Z,10.30
2018-12-14T01:38:16.544Z,7.80
2018-12-14T01:40:50.954Z,11.10
2018-12-14T01:43:22.451Z,5.95
2018-12-14T01:45:54.559Z,9.38
2018-12-14T01:48:29.247Z,10.85
2018-12-14T01:51:04.122Z,8.95
2018-12-14T01:53:42.004Z,10.08
2018-12-14T01:56:16.149Z,9.68
2018-12-14T01:58:53.990Z,14.03
2018-12-14T02:01:28.135Z,11.83
2018-12-14T02:04:09.843Z,11.35
2018-12-14T02:06:44.516Z,11.93
2018-12-14T02:09:18.507Z,10.93
2018-12-14T02:11:50.416Z,10.70
2018-12-14T02:14:25.050Z,12.73
2018-12-14T02:17:01.674Z,12.98
2018-12-14T02:19:40.086Z,15.72
2018-12-14T02:22:14.987Z,9.55
2018-12-14T02:24:50.534Z,12.80
2018-12-14T02:27:28.668Z,11.65
2018-12-14T02:30:07.129Z,10.03
2018-12-14T02:32:41.909Z,11.03
2018-12-14T02:35:14.281Z,10.30
2018-12-14T02:37:50.911Z,13.30
2018-12-14T02:40:27.546Z,10.25
2018-12-14T02:43:01.547Z,8.68
2018-12-14T02:45:33.510Z,10.63
2018-12-14T02:48:07.965Z,9.78
2018-12-14T02:50:40.362Z,13.58
2018-12-14T02:53:12.245Z,11.40
2018-12-14T02:55:48.679Z,13.55
2018-12-14T02:58:23.615Z,13.62
2018-12-14T03:00:57.644Z,9.60
2018-12-14T03:03:32.617Z,10.32
2018-12-14T03:06:09.649Z,11.83
2018-12-14T03:08:39.473Z,11.85
2018-12-14T03:11:13.866Z,14.53
2018-12-14T03:13:49.957Z,12.37
2018-12-14T03:16:30.372Z,9.68
2018-12-14T03:19:08.924Z,9.15
2018-12-14T03:21:46.917Z,11.65
2018-12-14T03:24:25.142Z,11.85
2018-12-14T03:27:03.447Z,10.45
2018-12-14T03:29:38.122Z,8.65
2018-12-14T03:32:18.573Z,11.18
2018-12-14T03:34:57.430Z,11.35
2018-12-14T03:37:35.713Z,9.83
2018-12-14T03:40:13.858Z,11.28
2018-12-14T03:42:49.015Z,8.75
2018-12-14T03:45:23.177Z,8.38
2018-12-14T03:48:01.991Z,10.98
2018-12-14T03:50:40.968Z,12.13
2018-12-14T03:53:19.165Z,12.55
2018-12-14T03:56:06.923Z,13.43
2018-12-14T03:58:46.677Z,12.30
2018-12-14T04:01:25.393Z,11.70
2018-12-14T04:04:08.017Z,14.43
2018-12-14T04:06:44.622Z,14.10
2018-12-14T04:09:22.654Z,11.50
2018-12-14T04:12:00.908Z,10.93
2018-12-14T04:14:37.360Z,12.10
2018-12-14T04:17:09.086Z,12.23
2018-12-14T04:19:41.436Z,14.58
2018-12-14T04:22:17.771Z,12.25
2018-12-14T04:24:55.756Z,10.30
2018-12-14T04:27:42.232Z,12.98
2018-12-14T04:30:16.611Z,11.18
2018-12-14T04:32:54.599Z,13.08
2018-12-14T04:35:30.901Z,8.93
2018-12-14T04:38:13.214Z,11.80
2018-12-14T04:40:50.742Z,9.95
2018-12-14T04:43:28.018Z,9.43
2018-12-14T04:46:02.332Z,14.25
2018-12-14T04:48:40.822Z,8.58
2018-12-14T04:51:16.475Z,14.23
2018-12-14T04:53:55.314Z,10.78
2018-12-14T04:56:33.322Z,10.85
2018-12-14T04:59:08.188Z,10.60
2018-12-14T05:01:46.199Z,12.28
2018-12-14T05:04:24.486Z,15.70
2018-12-14T05:06:59.227Z,15.68
2018-12-14T05:09:30.700Z,8.20
2018-12-14T05:12:07.852Z,9.03
2018-12-14T05:14:43.339Z,10.93
2018-12-14T05:17:20.307Z,12.15
2018-12-14T05:19:54.813Z,13.78
2018-12-14T05:22:35.287Z,9.35
2018-12-14T05:25:17.360Z,10.95
2018-12-14T05:27:51.945Z,11.97
2018-12-14T05:30:30.393Z,12.47
2018-12-14T05:33:07.301Z,9.35
2018-12-14T05:35:56.128Z,11.40
2018-12-14T05:41:26.730Z,12.63
2018-12-14T05:44:04.594Z,13.55
2018-12-14T05:46:52.018Z,9.88
2018-12-14T05:49:36.056Z,9.58
2018-12-14T05:52:27.014Z,9.88
2018-12-14T05:55:09.073Z,9.70
2018-12-14T06:00:39.634Z,10.25
2018-12-14T06:03:07.966Z,10.98
2018-12-14T06:05:36.169Z,8.85
2018-12-14T06:08:04.562Z,12.00
2018-12-14T06:10:32.872Z,12.40
2018-12-14T06:13:01.255Z,11.08
2018-12-14T06:15:29.553Z,14.53
2018-12-14T06:17:57.857Z,9.70
2018-12-14T06:20:26.130Z,10.68
2018-12-14T06:22:54.335Z,12.05
2018-12-14T06:25:22.617Z,10.15
2018-12-14T06:27:50.950Z,11.30
2018-12-14T06:30:19.248Z,12.75
2018-12-14T06:32:47.850Z,11.90
2018-12-14T06:35:16.295Z,12.00
2018-12-14T06:37:44.502Z,11.05
2018-12-14T06:40:13.065Z,11.80
2018-12-14T06:42:41.347Z,12.15
2018-12-14T06:45:10.238Z,10.85
2018-12-14T06:47:38.561Z,14.95
2018-12-14T06:50:07.078Z,13.10
2018-12-14T06:52:35.766Z,11.75
2018-12-14T06:55:04.636Z,12.78
2018-12-14T06:57:32.922Z,9.95
2018-12-14T07:00:19.563Z,11.48
2018-12-14T07:02:47.831Z,10.63
2018-12-14T07:05:16.119Z,11.70
2018-12-14T07:07:44.420Z,14.68
2018-12-14T07:10:12.672Z,15.53
2018-12-14T07:12:41.092Z,11.88
2018-12-14T07:15:09.523Z,10.05
2018-12-14T07:17:37.838Z,14.03
2018-12-14T07:20:06.885Z,11.90
2018-12-14T07:22:35.100Z,8.78
2018-12-14T07:25:04.599Z,11.22
2018-12-14T07:27:37.551Z,9.05
2018-12-14T07:30:06.187Z,12.58
2018-12-14T07:32:34.449Z,9.93
2018-12-14T07:35:02.787Z,12.82
2018-12-14T07:37:32.237Z,12.47
2018-12-14T07:40:00.559Z,14.30
2018-12-14T07:42:28.887Z,13.85
2018-12-14T07:44:57.178Z,12.63
2018-12-14T07:47:25.724Z,14.13
2018-12-14T07:49:53.973Z,17.48
2018-12-14T07:52:22.197Z,13.53
2018-12-14T07:54:50.466Z,14.60
2018-12-14T07:57:18.776Z,13.93
2018-12-14T07:59:46.927Z,14.07
2018-12-14T08:02:15.256Z,11.68
2018-12-14T08:04:43.885Z,15.00
2018-12-14T08:07:12.574Z,15.70
2018-12-14T08:09:40.774Z,16.60
2018-12-14T08:12:08.933Z,12.05
2018-12-14T08:14:37.094Z,12.90
2018-12-14T08:17:06.210Z,12.75
2018-12-14T08:19:34.428Z,13.55
2018-12-14T08:22:02.751Z,11.45
2018-12-14T08:24:30.883Z,14.20
2018-12-14T08:26:59.093Z,16.70
2018-12-14T08:29:27.274Z,12.15
2018-12-14T08:31:55.533Z,14.05
2018-12-14T08:34:23.721Z,10.90
2018-12-14T08:36:51.942Z,11.95
2018-12-14T08:39:20.154Z,11.88
2018-12-14T08:41:48.322Z,12.90
2018-12-14T08:44:16.495Z,13.15
2018-12-14T08:46:44.674Z,11.05
2018-12-14T08:49:13.118Z,12.78
2018-12-14T08:51:41.284Z,12.10
2018-12-14T08:54:09.503Z,12.47
2018-12-14T08:56:37.726Z,17.48
2018-12-14T08:59:06.013Z,12.58
2018-12-14T09:01:34.337Z,13.45
2018-12-14T09:04:02.598Z,8.93
2018-12-14T09:06:30.985Z,11.35
2018-12-14T09:08:59.203Z,11.85
2018-12-14T09:11:27.402Z,11.10
2018-12-14T09:13:55.630Z,13.10
2018-12-14T09:16:23.794Z,14.07
2018-12-14T09:18:52.003Z,13.10
2018-12-14T09:21:20.520Z,15.43
2018-12-14T09:23:49.572Z,11.90
2018-12-14T09:26:17.977Z,15.50
2018-12-14T09:28:46.411Z,16.15
2018-12-14T09:31:15.031Z,13.35
2018-12-14T09:33:43.220Z,14.50
2018-12-14T09:36:11.580Z,12.05
2018-12-14T09:38:39.837Z,14.13
2018-12-14T09:41:08.176Z,11.20
2018-12-14T09:43:36.519Z,10.82
2018-12-14T09:46:04.752Z,9.85
2018-12-14T09:48:32.909Z,9.68
2018-12-14T09:51:01.450Z,9.20
2018-12-14T09:53:29.663Z,6.90
2018-12-14T09:55:58.006Z,8.48
2018-12-14T09:58:26.319Z,12.20
2018-12-14T10:00:54.576Z,8.83
2018-12-14T10:03:22.821Z,8.60
2018-12-14T10:05:51.133Z,8.93
2018-12-14T10:08:19.470Z,9.25
2018-12-14T10:10:47.972Z,9.20
2018-12-14T10:13:16.547Z,8.40
2018-12-14T10:15:44.951Z,11.03
2018-12-14T10:18:13.205Z,8.85
2018-12-14T10:20:41.447Z,9.50
2018-12-14T10:23:09.727Z,8.58
2018-12-14T10:25:37.934Z,8.63
2018-12-14T10:28:06.192Z,9.50
2018-12-14T10:30:34.462Z,8.35
2018-12-14T10:33:02.719Z,10.60
2018-12-14T10:35:31.004Z,12.10
2018-12-14T10:37:59.200Z,8.40
2018-12-14T10:40:27.465Z,8.45
2018-12-14T10:42:55.692Z,7.58
2018-12-14T10:45:25.415Z,8.88
2018-12-14T10:47:53.710Z,10.50
2018-12-14T10:50:22.073Z,7.60
2018-12-14T10:52:50.206Z,8.60
2018-12-14T10:55:18.927Z,7.83
2018-12-14T10:57:47.342Z,10.05
2018-12-14T11:00:22.081Z,12.60
2018-12-14T11:02:50.238Z,10.10
2018-12-14T11:05:18.499Z,10.85
2018-12-14T11:07:46.763Z,10.13
2018-12-14T11:10:15.049Z,9.83
2018-12-14T11:12:43.685Z,8.65
2018-12-14T11:15:11.944Z,8.88
2018-12-14T11:17:40.049Z,7.35
2018-12-14T11:20:09.793Z,9.18
2018-12-14T11:22:38.017Z,9.03
2018-12-14T11:25:08.135Z,7.50
2018-12-14T11:27:37.264Z,8.85
2018-12-14T11:30:07.359Z,9.73
2018-12-14T11:32:35.478Z,11.90
2018-12-14T11:35:03.751Z,9.93
2018-12-14T11:37:31.894Z,10.10
2018-12-14T11:40:00.141Z,9.45
2018-12-14T11:42:28.556Z,8.30
2018-12-14T11:44:56.753Z,8.68
2018-12-14T11:47:25.100Z,11.00
2018-12-14T11:49:53.223Z,7.40
2018-12-14T11:52:21.407Z,8.98
2018-12-14T11:54:49.534Z,10.63
2018-12-14T11:57:17.712Z,9.40
2018-12-14T11:59:45.890Z,8.95
2018-12-14T12:02:14.121Z,9.98
2018-12-14T12:04:42.282Z,12.23
2018-12-14T12:07:10.449Z,8.58
2018-12-14T12:09:38.694Z,8.83
2018-12-14T12:12:06.894Z,12.05
2018-12-14T12:14:35.078Z,9.93
2018-12-14T12:17:03.389Z,10.43
2018-12-14T12:19:31.605Z,11.53
2018-12-14T12:22:00.001Z,12.43
2018-12-14T12:24:28.277Z,12.18
2018-12-14T12:26:56.430Z,9.45
2018-12-14T12:29:24.550Z,10.82
2018-12-14T12:31:52.758Z,11.03
2018-12-14T12:34:20.910Z,9.75
2018-12-14T12:36:49.046Z,9.73
2018-12-14T12:39:17.283Z,10.90
2018-12-14T12:41:45.717Z,12.03
2018-12-14T12:44:13.864Z,10.20
2018-12-14T12:46:42.083Z,9.18
2018-12-14T12:49:10.255Z,9.98
2018-12-14T12:51:38.479Z,14.90
2018-12-14T12:54:06.647Z,10.68
2018-12-14T12:56:35.305Z,10.03
2018-12-14T12:59:03.593Z,10.45
2018-12-14T13:01:31.938Z,10.75
2018-12-14T13:04:00.147Z,9.93
2018-12-14T13:06:28.345Z,11.45
2018-12-14T13:08:56.582Z,10.28
2018-12-14T13:11:25.271Z,13.53
2018-12-14T13:13:53.521Z,14.00
2018-12-14T13:16:21.703Z,11.70
2018-12-14T13:18:49.871Z,12.93
2018-12-14T13:21:18.146Z,10.58
2018-12-14T13:23:46.398Z,9.80
2018-12-14T13:26:14.642Z,9.08
2018-12-14T13:28:42.842Z,9.45
2018-12-14T13:31:11.117Z,9.58
2018-12-14T13:33:39.205Z,9.65
2018-12-14T13:36:07.458Z,8.68
2018-12-14T13:38:36.023Z,9.03
2018-12-14T13:41:04.369Z,9.85
2018-12-14T13:43:32.590Z,9.83
2018-12-14T13:46:01.181Z,13.03
2018-12-14T13:48:29.452Z,11.28
2018-12-14T13:50:57.682Z,11.30
2018-12-14T13:53:25.966Z,10.98
2018-12-14T13:55:54.151Z,9.63
2018-12-14T13:58:22.330Z,12.93
2018-12-14T14:00:50.427Z,10.85
2018-12-14T14:03:19.077Z,10.90
2018-12-14T14:05:47.390Z,12.58
2018-12-14T14:08:15.690Z,12.95
2018-12-14T14:10:44.105Z,10.93
2018-12-14T14:13:12.528Z,12.23
2018-12-14T14:15:40.836Z,13.00
2018-12-14T14:18:09.073Z,12.65
2018-12-14T14:20:37.423Z,10.25
2018-12-14T14:23:05.665Z,11.93
2018-12-14T14:25:34.203Z,12.53
2018-12-14T14:28:02.615Z,13.20
2018-12-14T14:30:30.981Z,14.00
2018-12-14T14:32:59.319Z,14.68
2018-12-14T14:35:27.621Z,16.20
2018-12-14T14:37:57.540Z,14.18
2018-12-14T14:40:25.995Z,16.37
2018-12-14T14:42:54.338Z,13.20
2018-12-14T14:45:22.620Z,14.50
2018-12-14T14:47:50.943Z,14.10
2018-12-14T14:50:19.566Z,15.28
2018-12-14T14:52:48.010Z,18.90
2018-12-14T14:55:16.341Z,12.03
2018-12-14T14:57:44.912Z,14.55
2018-12-14T15:00:13.265Z,13.30
2018-12-14T15:02:41.600Z,16.40
2018-12-14T15:05:10.049Z,17.00
2018-12-14T15:07:38.346Z,16.55
2018-12-14T15:10:07.262Z,12.30
2018-12-14T15:12:35.481Z,14.50
2018-12-14T15:15:06.825Z,13.40
2018-12-14T15:17:34.283Z,20.65
2018-12-14T15:20:02.663Z,13.95
2018-12-14T15:22:30.895Z,13.85
2018-12-14T15:24:59.157Z,15.03
2018-12-14T15:27:27.424Z,16.65
2018-12-14T15:29:55.827Z,17.48
2018-12-14T15:32:24.163Z,13.43
2018-12-14T15:34:52.634Z,14.95
2018-12-14T15:37:22.443Z,15.60
2018-12-14T15:39:52.782Z,15.13
2018-12-14T15:42:21.175Z,16.27
2018-12-14T15:44:49.601Z,18.12
2018-12-14T15:47:19.116Z,18.52
2018-12-14T15:49:49.307Z,17.00
2018-12-14T15:52:17.714Z,16.65
2018-12-14T15:54:46.075Z,13.80
2018-12-14T15:57:14.562Z,17.12
2018-12-14T15:59:42.917Z,16.65
2018-12-14T16:02:11.349Z,16.35
2018-12-14T16:04:39.706Z,13.90
2018-12-14T16:07:08.071Z,17.27
2018-12-14T16:09:36.764Z,19.20
2018-12-14T16:12:10.050Z,15.20
2018-12-14T16:14:38.477Z,15.63
2018-12-14T16:17:06.704Z,16.50
2018-12-14T16:19:35.434Z,17.45
2018-12-14T16:22:03.796Z,14.90
2018-12-14T16:24:32.255Z,15.23
2018-12-14T16:27:00.623Z,16.60
2018-12-14T16:29:28.997Z,14.28
2018-12-14T16:31:57.314Z,15.48
2018-12-14T16:34:25.497Z,18.23
2018-12-14T16:36:54.068Z,15.55
2018-12-14T16:39:22.418Z,19.57
2018-12-14T16:41:50.809Z,15.90
2018-12-14T16:44:19.229Z,17.80
2018-12-14T16:46:47.582Z,14.03
2018-12-14T16:49:15.972Z,15.00
2018-12-14T16:51:44.488Z,17.65
2018-12-14T16:54:12.797Z,17.90
2018-12-14T16:56:41.430Z,17.95
2018-12-14T16:59:09.870Z,23.25
2018-12-14T17:01:38.239Z,18.73
2018-12-14T17:04:06.562Z,18.27
2018-12-14T17:06:34.818Z,17.65
2018-12-14T17:09:03.478Z,18.48
2018-12-14T17:11:31.655Z,18.55
2018-12-14T17:14:00.956Z,20.00
2018-12-14T17:16:29.382Z,23.30
2018-12-14T17:18:57.698Z,19.57
2018-12-14T17:21:26.002Z,18.87
2018-12-14T17:23:54.180Z,20.32
2018-12-14T17:26:22.397Z,24.32
2018-12-14T17:28:50.721Z,21.57
2018-12-14T17:31:19.403Z,19.70
2018-12-14T17:33:48.263Z,17.55
2018-12-14T17:36:16.521Z,20.25
2018-12-14T17:38:44.883Z,20.52
2018-12-14T17:41:13.199Z,24.45
2018-12-14T17:43:41.548Z,21.00
2018-12-14T17:46:10.026Z,25.52
2018-12-14T17:48:38.335Z,26.52
2018-12-14T17:51:06.714Z,24.18
2018-12-14T17:53:34.970Z,27.00
2018-12-14T17:56:03.328Z,23.32
2018-12-14T17:58:31.581Z,28.98
2018-12-14T18:00:59.827Z,26.60
2018-12-14T18:03:28.101Z,26.33
2018-12-14T18:05:56.431Z,28.70
2018-12-14T18:08:24.622Z,25.85
2018-12-14T18:10:52.907Z,27.00
2018-12-14T18:13:21.337Z,31.07
2018-12-14T18:15:50.183Z,30.57
2018-12-14T18:18:18.500Z,33.63
2018-12-14T18:20:47.884Z,30.15
2018-12-14T18:23:16.294Z,28.55
2018-12-14T18:25:44.564Z,29.20
2018-12-14T18:28:12.766Z,31.62
2018-12-14T18:30:40.986Z,26.48
2018-12-14T18:33:09.248Z,33.55
2018-12-14T18:35:37.498Z,31.25
2018-12-14T18:38:05.708Z,29.87
2018-12-14T18:40:35.070Z,27.80
2018-12-14T18:43:03.750Z,29.48
2018-12-14T18:45:31.953Z,33.10
2018-12-14T18:48:00.142Z,32.03
2018-12-14T18:50:28.422Z,30.60
2018-12-14T18:52:56.792Z,33.50
2018-12-14T18:55:25.059Z,31.37
2018-12-14T18:57:53.294Z,31.90
2018-12-14T19:00:21.489Z,34.30
2018-12-14T19:02:49.822Z,36.10
2018-12-14T19:05:18.319Z,33.05
2018-12-14T19:07:46.566Z,35.88
2018-12-14T19:10:14.745Z,29.72
2018-12-14T19:12:43.000Z,35.20
2018-12-14T19:15:12.130Z,34.15
2018-12-14T19:17:40.422Z,35.10
2018-12-14T19:20:09.062Z,33.35
2018-12-14T19:22:37.343Z,34.65
2018-12-14T19:25:06.074Z,33.95
2018-12-14T19:27:34.402Z,37.45
2018-12-14T19:30:03.231Z,37.35
2018-12-14T19:32:31.450Z,38.88
2018-12-14T19:34:59.688Z,33.98
2018-12-14T19:37:28.082Z,37.65
2018-12-14T19:39:56.531Z,37.28
2018-12-14T19:42:24.735Z,31.30
2018-12-14T19:44:53.062Z,43.60
2018-12-14T19:47:21.621Z,34.98
2018-12-14T19:49:49.954Z,33.33
2018-12-14T19:52:18.435Z,34.90
2018-12-14T19:54:46.814Z,32.08
2018-12-14T19:57:15.006Z,35.90
2018-12-14T19:59:43.930Z,31.70
2018-12-14T20:02:12.196Z,32.63
2018-12-14T20:04:40.446Z,33.02
2018-12-14T20:07:08.935Z,36.58
2018-12-14T20:09:37.207Z,33.20
2018-12-14T20:12:05.611Z,31.85
2018-12-14T20:14:34.187Z,35.25
2018-12-14T20:17:02.635Z,36.63
2018-12-14T20:19:30.851Z,31.85
2018-12-14T20:21:59.145Z,37.05
2018-12-14T20:24:27.453Z,34.73
2018-12-14T20:26:56.099Z,30.43
2018-12-14T20:29:24.481Z,30.10
2018-12-14T20:31:52.728Z,32.45
2018-12-14T20:34:23.159Z,29.12
2018-12-14T20:36:51.595Z,31.87
2018-12-14T20:39:19.858Z,33.63
2018-12-14T20:41:48.553Z,32.65
2018-12-14T20:44:16.896Z,28.92
2018-12-14T20:46:45.214Z,31.12
2018-12-14T20:49:13.440Z,31.93
2018-12-14T20:51:41.679Z,29.30
2018-12-14T20:54:10.002Z,30.17
2018-12-14T20:56:38.460Z,32.90
2018-12-14T20:59:06.854Z,27.20
2018-12-14T21:01:35.238Z,33.50
2018-12-14T21:04:04.343Z,29.40
2018-12-14T21:06:32.571Z,29.23
2018-12-14T21:09:00.757Z,34.98
2018-12-14T21:11:28.963Z,27.45
2018-12-14T21:13:57.238Z,27.05
2018-12-14T21:16:26.103Z,31.45
2018-12-14T21:18:55.023Z,28.05
2018-12-14T21:21:23.176Z,32.28
2018-12-14T21:23:51.523Z,33.42
2018-12-14T21:26:19.803Z,33.73
2018-12-14T21:28:48.092Z,28.45
2018-12-14T21:31:16.318Z,33.92
2018-12-14T21:33:44.678Z,32.20
2018-12-14T21:36:12.930Z,30.37
2018-12-14T21:38:41.196Z,29.23
2018-12-14T21:41:09.340Z,26.40
2018-12-14T21:43:37.667Z,23.87
2018-12-14T21:46:05.903Z,32.25
2018-12-14T21:48:34.080Z,27.48
2018-12-14T21:51:02.314Z,28.25
2018-12-14T21:53:30.666Z,24.60
2018-12-14T21:55:58.869Z,25.15
2018-12-14T21:58:27.199Z,22.20
2018-12-14T22:00:55.518Z,25.95
2018-12-14T22:03:23.751Z,28.60
2018-12-14T22:05:52.042Z,25.82
2018-12-14T22:08:20.315Z,26.55
2018-12-14T22:10:48.546Z,27.85
2018-12-14T22:13:16.742Z,24.02
2018-12-14T22:15:44.978Z,23.75
2018-12-14T22:18:13.149Z,26.70
2018-12-14T22:20:41.430Z,27.65
2018-12-14T22:23:09.636Z,24.27
2018-12-14T22:25:37.867Z,28.20
2018-12-14T22:28:06.059Z,27.42
2018-12-14T22:30:34.742Z,23.42
2018-12-14T22:33:03.017Z,23.70
2018-12-14T22:35:31.193Z,21.75
2018-12-14T22:37:59.389Z,21.00
2018-12-14T22:40:27.916Z,20.90
2018-12-14T22:42:56.096Z,20.62
2018-12-14T22:45:24.358Z,23.95
2018-12-14T22:47:52.642Z,21.25
2018-12-14T22:50:23.530Z,21.75
2018-12-14T22:52:51.876Z,25.10
2018-12-14T22:55:20.070Z,20.80
2018-12-14T22:57:48.305Z,22.27
2018-12-14T23:00:23.292Z,22.52
2018-12-14T23:03:04.603Z,27.07
2018-12-14T23:05:34.439Z,22.37
2018-12-14T23:08:09.524Z,20.75
2018-12-14T23:10:38.501Z,22.55
2018-12-14T23:13:09.479Z,21.82
2018-12-14T23:15:45.058Z,21.23
2018-12-14T23:18:20.561Z,23.95
2018-12-14T23:20:51.459Z,19.12
2018-12-14T23:23:29.254Z,20.25
2018-12-14T23:26:01.529Z,18.82
2018-12-14T23:28:42.349Z,24.00
2018-12-14T23:31:15.227Z,20.15
2018-12-14T23:33:51.389Z,19.00
2018-12-14T23:36:32.341Z,21.95
2018-12-14T23:39:11.189Z,21.27
2018-12-14T23:41:52.393Z,24.32
2018-12-14T23:44:30.382Z,21.90
2018-12-14T23:47:10.884Z,24.07
2018-12-14T23:49:48.839Z,20.60
2018-12-14T23:52:23.503Z,22.65
2018-12-14T23:55:14.967Z,20.65
2018-12-14T23:57:50.588Z,17.95
